Time;durP1;ratioP1;P1;durP2;ratioP2;P2;SDS_P1;SDS_P2;PMS_P1;PMS_P2;Temp;Humidity;BMP_temperature;BMP_pressure;BME280_temperature;BME280_humidity;BME280_pressure;Samples;Min_cycle;Max_cycle;Signal;HPM_P1;HPM_P2
2022/11/15 00:01:02;;;;;;;12.65;2.92;;;;;;;;;;6265155;22;20166;-78
2022/11/15 00:03:46;;;;;;;7.18;2.58;;;;;;;;;;6265014;22;20479;-78
2022/11/15 00:06:30;;;;;;;7.63;2.72;;;;;;;;;;6265557;22;20019;-79
2022/11/15 00:09:14;;;;;;;6.88;2.42;;;;;;;;;;6245151;23;20467;-79
2022/11/15 00:11:58;;;;;;;7.68;3.50;;;;;;;;;;6245225;23;20509;-79
2022/11/15 00:14:42;;;;;;;10.77;2.83;;;;;;;;;;6245103;23;20479;-79
2022/11/15 00:17:26;;;;;;;6.38;2.50;;;;;;;;;;6243065;23;20023;-79
2022/11/15 00:20:11;;;;;;;11.88;2.60;;;;;;;;;;6244808;23;20027;-79
2022/11/15 00:22:55;;;;;;;8.60;2.80;;;;;;;;;;6244686;23;20023;-79
2022/11/15 00:25:39;;;;;;;6.60;2.42;;;;;;;;;;6265321;22;20457;-79
2022/11/15 00:28:22;;;;;;;7.40;2.85;;;;;;;;;;6244580;23;20070;-79
2022/11/15 00:31:08;;;;;;;8.95;2.40;;;;;;;;;;6244715;23;20510;-79
2022/11/15 00:33:52;;;;;;;7.90;2.00;;;;;;;;;;6264831;22;20039;-79
2022/11/15 00:36:36;;;;;;;7.75;2.30;;;;;;;;;;6265152;22;20088;-79
2022/11/15 00:39:20;;;;;;;6.45;2.25;;;;;;;;;;6265725;22;20026;-79
2022/11/15 00:42:04;;;;;;;8.55;2.55;;;;;;;;;;6264969;22;20038;-79
2022/11/15 00:44:48;;;;;;;6.18;2.33;;;;;;;;;;6244874;23;20046;-78
2022/11/15 00:47:32;;;;;;;4.55;1.80;;;;;;;;;;6265414;22;20117;-78
2022/11/15 00:50:16;;;;;;;4.93;1.98;;;;;;;;;;6265449;22;20022;-78
2022/11/15 00:53:00;;;;;;;6.38;2.00;;;;;;;;;;6245075;23;20023;-78
2022/11/15 00:55:44;;;;;;;6.18;1.80;;;;;;;;;;6244702;23;20344;-78
2022/11/15 00:58:28;;;;;;;5.28;2.00;;;;;;;;;;6245061;22;20387;-78
2022/11/15 01:01:12;;;;;;;6.20;1.70;;;;;;;;;;6244993;23;20035;-78
2022/11/15 01:03:56;;;;;;;6.35;2.10;;;;;;;;;;6264882;22;20027;-78
2022/11/15 01:06:40;;;;;;;5.72;1.90;;;;;;;;;;6265225;22;20023;-79
2022/11/15 01:09:24;;;;;;;5.50;2.10;;;;;;;;;;6245052;23;20163;-78
2022/11/15 01:12:08;;;;;;;6.15;2.20;;;;;;;;;;6244546;23;20059;-78
2022/11/15 01:14:52;;;;;;;5.65;1.77;;;;;;;;;;6244457;23;20066;-79
2022/11/15 01:17:36;;;;;;;4.47;2.00;;;;;;;;;;6265183;22;20027;-81
2022/11/15 01:20:20;;;;;;;5.45;2.33;;;;;;;;;;6244447;23;20046;-80
2022/11/15 01:23:04;;;;;;;4.50;1.67;;;;;;;;;;6243336;23;20066;-80
2022/11/15 01:25:48;;;;;;;4.50;1.80;;;;;;;;;;6265005;22;20039;-78
2022/11/15 01:28:32;;;;;;;7.20;2.30;;;;;;;;;;6244669;23;20039;-78
2022/11/15 01:31:17;;;;;;;7.07;1.80;;;;;;;;;;6264684;22;20019;-80
2022/11/15 01:34:01;;;;;;;5.15;1.75;;;;;;;;;;6265053;22;20106;-79
2022/11/15 01:36:45;;;;;;;5.70;1.88;;;;;;;;;;6246696;23;20023;-80
2022/11/15 01:39:29;;;;;;;9.95;1.98;;;;;;;;;;6245052;23;20023;-79
2022/11/15 01:42:13;;;;;;;7.10;1.80;;;;;;;;;;6267159;22;20397;-79
2022/11/15 01:44:57;;;;;;;5.32;1.60;;;;;;;;;;6267027;22;20474;-78
2022/11/15 01:47:42;;;;;;;6.70;1.90;;;;;;;;;;6246437;23;20364;-79
2022/11/15 01:50:27;;;;;;;5.20;2.00;;;;;;;;;;6266811;22;20050;-78
2022/11/15 01:53:12;;;;;;;9.13;2.45;;;;;;;;;;6266752;22;20402;-79
2022/11/15 01:55:55;;;;;;;9.88;2.50;;;;;;;;;;6266739;22;20027;-79
2022/11/15 01:58:39;;;;;;;7.35;2.13;;;;;;;;;;6266237;22;20030;-79
2022/11/15 02:01:24;;;;;;;7.63;2.75;;;;;;;;;;6267028;22;20054;-78
2022/11/15 02:04:27;;;;;;;10.00;2.72;;;;;;;;;;6266404;22;20344;-78
2022/11/15 02:07:12;;;;;;;18.20;3.33;;;;;;;;;;6266592;22;20108;-78
2022/11/15 02:09:58;;;;;;;8.52;2.40;;;;;;;;;;6244958;23;20035;-78
2022/11/15 02:12:42;;;;;;;8.55;2.95;;;;;;;;;;6266627;22;20506;-79
2022/11/15 02:15:27;;;;;;;11.02;2.63;;;;;;;;;;6267118;22;20042;-79
2022/11/15 02:18:14;;;;;;;14.18;2.78;;;;;;;;;;6266463;22;20039;-79
2022/11/15 02:21:01;;;;;;;17.33;4.30;;;;;;;;;;6266741;22;20027;-78
2022/11/15 02:24:04;;;;;;;13.88;3.85;;;;;;;;;;6266423;22;20070;-79
2022/11/15 02:27:06;;;;;;;15.30;3.50;;;;;;;;;;6246196;23;20073;-79
2022/11/15 02:29:50;;;;;;;10.40;3.15;;;;;;;;;;6244429;23;20066;-78
2022/11/15 02:32:44;;;;;;;12.52;3.60;;;;;;;;;;6246095;23;20459;-79
2022/11/15 02:35:48;;;;;;;11.40;3.47;;;;;;;;;;6245934;23;20026;-79
2022/11/15 02:38:34;;;;;;;11.68;3.00;;;;;;;;;;6241376;22;20023;-79
2022/11/15 02:41:42;;;;;;;12.95;3.47;;;;;;;;;;6266270;22;20023;-79
2022/11/15 02:44:26;;;;;;;;;;;;;;;;;;6246094;23;20422;-79
2022/11/15 02:47:14;;;;;;;9.63;3.25;;;;;;;;;;6244448;23;19915;-79
2022/11/15 02:50:01;;;;;;;7.15;2.92;;;;;;;;;;6265657;22;20023;-79
2022/11/15 02:52:45;;;;;;;10.35;3.15;;;;;;;;;;6265688;22;20050;-79
2022/11/15 02:55:30;;;;;;;8.60;3.40;;;;;;;;;;6265842;22;20023;-79
2022/11/15 02:58:33;;;;;;;16.77;3.22;;;;;;;;;;6245485;22;20070;-79
2022/11/15 03:01:23;;;;;;;5.28;2.90;;;;;;;;;;6245754;23;20039;-79
2022/11/15 03:04:10;;;;;;;11.45;3.88;;;;;;;;;;6245686;23;20031;-79
2022/11/15 03:07:00;;;;;;;7.05;2.83;;;;;;;;;;6245844;23;20107;-79
2022/11/15 03:10:05;;;;;;;14.52;4.03;;;;;;;;;;6265673;22;20023;-79
2022/11/15 03:12:56;;;;;;;9.32;3.10;;;;;;;;;;6265584;22;20022;-79
2022/11/15 03:15:42;;;;;;;7.32;3.30;;;;;;;;;;6265872;22;20023;-79
2022/11/15 03:18:28;;;;;;;8.63;3.20;;;;;;;;;;6265894;22;20348;-79
2022/11/15 03:21:12;;;;;;;8.10;3.17;;;;;;;;;;6265741;22;20073;-78
2022/11/15 03:23:56;;;;;;;7.75;3.15;;;;;;;;;;6265879;22;20073;-79
2022/11/15 03:26:40;;;;;;;8.52;3.35;;;;;;;;;;6265696;22;20019;-80
2022/11/15 03:29:25;;;;;;;5.80;2.90;;;;;;;;;;6266074;22;20035;-80
2022/11/15 03:32:11;;;;;;;9.73;3.28;;;;;;;;;;6245282;23;20019;-78
2022/11/15 03:35:01;;;;;;;10.45;3.17;;;;;;;;;;6245771;23;20074;-79
2022/11/15 03:38:03;;;;;;;9.45;3.38;;;;;;;;;;6265654;22;20023;-79
2022/11/15 03:40:49;;;;;;;9.50;3.40;;;;;;;;;;6265665;22;20101;-80
2022/11/15 03:43:39;;;;;;;7.22;3.20;;;;;;;;;;6265707;22;20046;-79
2022/11/15 03:46:27;;;;;;;5.57;2.40;;;;;;;;;;6265761;22;20085;-79
2022/11/15 03:49:15;;;;;;;9.10;2.22;;;;;;;;;;6266116;22;20074;-80
2022/11/15 03:51:59;;;;;;;4.85;2.00;;;;;;;;;;6265655;22;20023;-80
2022/11/15 03:54:51;;;;;;;4.50;1.80;;;;;;;;;;6245089;23;20074;-80
2022/11/15 03:57:35;;;;;;;8.35;2.35;;;;;;;;;;6265329;22;20026;-78
2022/11/15 04:00:19;;;;;;;5.10;1.85;;;;;;;;;;6265969;22;20090;-80
2022/11/15 04:03:04;;;;;;;4.53;1.80;;;;;;;;;;6265470;22;20363;-79
2022/11/15 04:05:48;;;;;;;6.22;1.80;;;;;;;;;;6265838;22;20066;-79
2022/11/15 04:08:31;;;;;;;5.10;1.65;;;;;;;;;;6245510;23;20340;-79
2022/11/15 04:11:15;;;;;;;9.60;2.15;;;;;;;;;;6245487;23;20023;-80
2022/11/15 04:13:59;;;;;;;8.23;2.10;;;;;;;;;;6265496;22;20026;-80
2022/11/15 04:16:43;;;;;;;8.38;1.90;;;;;;;;;;6265930;22;20022;-79
2022/11/15 04:25:33;;;;;;;7.30;1.98;;;;;;;;;;6244507;23;20027;-80
2022/11/15 04:28:17;;;;;;;4.93;2.00;;;;;;;;;;6244678;23;20085;-79
2022/11/15 04:31:01;;;;;;;9.50;2.10;;;;;;;;;;6265066;22;20122;-80
2022/11/15 04:33:45;;;;;;;6.82;3.03;;;;;;;;;;6244876;23;20063;-78
2022/11/15 04:39:31;;;;;;;6.05;2.95;;;;;;;;;;6244527;23;20039;-79
2022/11/15 04:42:15;;;;;;;6.40;2.33;;;;;;;;;;6244632;23;20023;-80
2022/11/15 04:44:59;;;;;;;6.13;2.60;;;;;;;;;;6265081;22;20023;-80
2022/11/15 04:47:44;;;;;;;7.40;2.50;;;;;;;;;;6244826;23;20027;-80
2022/11/15 04:50:28;;;;;;;5.22;2.10;;;;;;;;;;6242953;23;20023;-80
2022/11/15 04:53:12;;;;;;;8.70;2.33;;;;;;;;;;6244431;23;20398;-80
2022/11/15 04:55:56;;;;;;;8.75;2.47;;;;;;;;;;6265313;22;20027;-79
2022/11/15 04:58:40;;;;;;;5.38;2.03;;;;;;;;;;6265129;22;20432;-80
2022/11/15 05:01:24;;;;;;;7.15;2.03;;;;;;;;;;6244497;23;20027;-80
2022/11/15 05:04:20;;;;;;;11.07;2.30;;;;;;;;;;6244442;23;20046;-80
2022/11/15 05:07:04;;;;;;;7.70;2.20;;;;;;;;;;6244503;23;20406;-80
2022/11/15 05:09:48;;;;;;;6.35;2.22;;;;;;;;;;6266462;22;20078;-86
2022/11/15 05:12:32;;;;;;;14.43;3.00;;;;;;;;;;6267358;22;20340;-81
2022/11/15 05:15:16;;;;;;;7.32;2.30;;;;;;;;;;6246415;23;20480;-80
2022/11/15 05:18:00;;;;;;;7.32;2.25;;;;;;;;;;6246532;23;20023;-80
2022/11/15 05:20:44;;;;;;;7.30;2.55;;;;;;;;;;6267004;22;20035;-82
2022/11/15 05:23:28;;;;;;;12.15;2.60;;;;;;;;;;6246425;23;20418;-81
2022/11/15 05:26:12;;;;;;;8.57;2.40;;;;;;;;;;6245270;23;20104;-79
2022/11/15 05:28:56;;;;;;;8.75;2.40;;;;;;;;;;6246826;23;20019;-81
2022/11/15 05:31:42;;;;;;;15.00;3.45;;;;;;;;;;6265964;22;20058;-82
2022/11/15 05:34:26;;;;;;;8.98;3.63;;;;;;;;;;6266526;22;20070;-81
2022/11/15 05:37:10;;;;;;;12.95;3.83;;;;;;;;;;6265311;22;20023;-81
2022/11/15 05:39:54;;;;;;;14.57;4.28;;;;;;;;;;6245179;23;20070;-81
2022/11/15 05:42:38;;;;;;;14.25;4.15;;;;;;;;;;6264931;22;20023;-81
2022/11/15 05:45:22;;;;;;;12.52;4.30;;;;;;;;;;6245011;23;20027;-81
2022/11/15 05:48:06;;;;;;;14.95;4.93;;;;;;;;;;6265191;22;20019;-81
2022/11/15 05:50:50;;;;;;;18.63;7.45;;;;;;;;;;6244701;23;20019;-82
2022/11/15 05:53:34;;;;;;;16.58;8.07;;;;;;;;;;6245116;23;20065;-82
2022/11/15 05:56:19;;;;;;;19.05;6.20;;;;;;;;;;6245110;23;20022;-79
2022/11/15 05:59:03;;;;;;;17.30;5.40;;;;;;;;;;6252505;22;20466;-79
2022/11/15 06:01:47;;;;;;;11.10;4.15;;;;;;;;;;6252140;22;20097;-79
2022/11/15 06:04:31;;;;;;;6.82;3.20;;;;;;;;;;6273952;22;20092;-80
2022/11/15 06:07:21;;;;;;;13.05;3.60;;;;;;;;;;6274842;22;20038;-80
2022/11/15 06:10:05;;;;;;;10.95;3.22;;;;;;;;;;6274899;22;20022;-80
2022/11/15 06:12:56;;;;;;;16.02;3.28;;;;;;;;;;6273669;22;20041;-80
2022/11/15 06:15:40;;;;;;;6.15;2.65;;;;;;;;;;6275122;22;20022;-80
2022/11/15 06:18:24;;;;;;;7.30;2.88;;;;;;;;;;6273896;22;20496;-81
2022/11/15 06:21:08;;;;;;;9.98;2.90;;;;;;;;;;6273335;22;20086;-81
2022/11/15 06:23:52;;;;;;;10.07;2.92;;;;;;;;;;6274856;22;20466;-82
2022/11/15 06:26:36;;;;;;;8.27;2.70;;;;;;;;;;6274965;22;20162;-81
2022/11/15 06:29:20;;;;;;;11.65;3.10;;;;;;;;;;6252167;22;20022;-79
2022/11/15 06:32:04;;;;;;;11.25;3.67;;;;;;;;;;6273718;22;20023;-80
2022/11/15 06:34:48;;;;;;;11.95;2.85;;;;;;;;;;6274786;22;20026;-80
2022/11/15 06:37:33;;;;;;;18.63;3.45;;;;;;;;;;6272941;22;20042;-79
2022/11/15 06:40:17;;;;;;;9.00;2.50;;;;;;;;;;6274891;22;20030;-80
2022/11/15 06:43:01;;;;;;;7.13;2.70;;;;;;;;;;6273096;22;20049;-80
2022/11/15 06:45:45;;;;;;;7.95;2.70;;;;;;;;;;6274104;22;20042;-81
2022/11/15 06:48:29;;;;;;;10.10;3.45;;;;;;;;;;6274896;22;20058;-80
2022/11/15 06:51:13;;;;;;;9.68;2.75;;;;;;;;;;6274196;22;20414;-80
2022/11/15 06:53:57;;;;;;;8.60;2.20;;;;;;;;;;6274713;22;20073;-80
2022/11/15 06:56:41;;;;;;;7.70;2.22;;;;;;;;;;6274461;22;20026;-80
2022/11/15 06:59:25;;;;;;;6.00;2.38;;;;;;;;;;6257635;22;20051;-80
2022/11/15 07:02:13;;;;;;;5.28;2.05;;;;;;;;;;6243874;23;20474;-79
2022/11/15 07:04:57;;;;;;;9.60;2.15;;;;;;;;;;6264492;22;20423;-79
2022/11/15 07:07:40;;;;;;;8.52;2.38;;;;;;;;;;6263965;22;20356;-80
2022/11/15 07:10:25;;;;;;;4.30;2.00;;;;;;;;;;6242822;23;20070;-80
2022/11/15 07:13:09;;;;;;;8.25;2.58;;;;;;;;;;6242273;23;20022;-79
2022/11/15 07:15:53;;;;;;;6.47;2.45;;;;;;;;;;6242482;23;20042;-80
2022/11/15 07:18:37;;;;;;;7.75;2.20;;;;;;;;;;6263900;22;20042;-80
2022/11/15 07:21:21;;;;;;;7.75;2.33;;;;;;;;;;6264240;22;20023;-80
2022/11/15 07:24:05;;;;;;;7.35;2.38;;;;;;;;;;6264092;22;20417;-80
2022/11/15 07:26:49;;;;;;;5.57;2.50;;;;;;;;;;6263636;22;20149;-81
2022/11/15 07:29:33;;;;;;;6.55;2.13;;;;;;;;;;6263976;22;20023;-81
2022/11/15 07:32:17;;;;;;;8.82;3.40;;;;;;;;;;6243743;23;20023;-81
2022/11/15 07:35:01;;;;;;;9.00;2.53;;;;;;;;;;6243905;23;20027;-81
2022/11/15 07:37:52;;;;;;;7.90;3.10;;;;;;;;;;6263811;22;20046;-80
2022/11/15 07:40:36;;;;;;;6.22;2.63;;;;;;;;;;6264037;22;20022;-82
2022/11/15 07:43:20;;;;;;;9.60;2.80;;;;;;;;;;6243670;23;20082;-81
2022/11/15 07:46:05;;;;;;;12.23;2.90;;;;;;;;;;6263506;22;20074;-81
2022/11/15 07:48:49;;;;;;;6.45;2.58;;;;;;;;;;6263739;22;20051;-81
2022/11/15 07:51:32;;;;;;;6.88;2.45;;;;;;;;;;6241689;23;20019;-80
2022/11/15 07:54:16;;;;;;;6.15;2.22;;;;;;;;;;6242381;23;20027;-80
2022/11/15 07:57:00;;;;;;;7.15;2.50;;;;;;;;;;6243226;23;20023;-81
2022/11/15 07:59:44;;;;;;;10.65;2.60;;;;;;;;;;6243344;22;20525;-80
2022/11/15 08:02:29;;;;;;;7.65;2.50;;;;;;;;;;6241715;23;20027;-80
2022/11/15 08:05:13;;;;;;;8.57;2.90;;;;;;;;;;6243110;23;20030;-81
2022/11/15 08:07:57;;;;;;;8.75;2.30;;;;;;;;;;6243682;23;20486;-81
2022/11/15 08:10:41;;;;;;;9.32;2.35;;;;;;;;;;6263831;22;20087;-81
2022/11/15 08:13:25;;;;;;;7.03;2.40;;;;;;;;;;6263169;22;20022;-80
2022/11/15 08:16:10;;;;;;;8.00;2.22;;;;;;;;;;6242985;23;20101;-80
2022/11/15 08:18:55;;;;;;;7.15;2.33;;;;;;;;;;6242940;23;20026;-80
2022/11/15 08:21:38;;;;;;;6.57;1.98;;;;;;;;;;6241804;23;20517;-79
2022/11/15 08:24:23;;;;;;;6.25;2.00;;;;;;;;;;6243295;23;20070;-81
2022/11/15 08:27:14;;;;;;;6.07;2.25;;;;;;;;;;6263580;22;20026;-81
2022/11/15 08:29:58;;;;;;;8.75;2.22;;;;;;;;;;6243014;23;20487;-80
2022/11/15 08:32:42;;;;;;;5.03;2.17;;;;;;;;;;6243097;23;20082;-80
2022/11/15 08:35:26;;;;;;;6.80;2.75;;;;;;;;;;6243369;23;20091;-81
2022/11/15 08:38:10;;;;;;;8.77;2.58;;;;;;;;;;6243410;23;20379;-81
2022/11/15 08:40:58;;;;;;;9.40;2.50;;;;;;;;;;6263687;22;20479;-80
2022/11/15 08:43:42;;;;;;;9.45;2.58;;;;;;;;;;6264885;22;20027;-82
2022/11/15 08:46:26;;;;;;;9.95;2.53;;;;;;;;;;6246666;23;20081;-82
2022/11/15 08:49:10;;;;;;;8.27;2.70;;;;;;;;;;6246390;23;20510;-81
2022/11/15 08:51:54;;;;;;;5.53;2.17;;;;;;;;;;6267217;22;20019;-81
2022/11/15 08:54:38;;;;;;;8.50;2.50;;;;;;;;;;6246667;23;20070;-81
2022/11/15 08:57:22;;;;;;;9.65;2.28;;;;;;;;;;6266857;22;20122;-81
2022/11/15 09:00:06;;;;;;;7.63;2.10;;;;;;;;;;6267169;22;20401;-81
2022/11/15 09:02:50;;;;;;;8.23;3.35;;;;;;;;;;6246640;23;20513;-81
2022/11/15 09:05:37;;;;;;;7.78;2.47;;;;;;;;;;6246135;23;20027;-81
2022/11/15 09:08:21;;;;;;;;;;;;;;;;;;6267800;22;20022;-81
2022/11/15 09:11:06;;;;;;;8.75;2.50;;;;;;;;;;6245140;23;19913;-81
2022/11/15 09:13:50;;;;;;;6.97;3.00;;;;;;;;;;6245892;23;20022;-81
2022/11/15 09:16:34;;;;;;;9.95;2.53;;;;;;;;;;6246130;23;20019;-82
2022/11/15 09:19:18;;;;;;;7.63;2.30;;;;;;;;;;6246517;23;20058;-81
2022/11/15 09:22:01;;;;;;;11.85;2.50;;;;;;;;;;6246061;23;20022;-81
2022/11/15 09:24:45;;;;;;;4.07;2.08;;;;;;;;;;6266248;22;20027;-81
2022/11/15 09:27:29;;;;;;;6.90;2.00;;;;;;;;;;6266608;22;20359;-81
2022/11/15 09:30:13;;;;;;;7.88;2.30;;;;;;;;;;6266839;22;20019;-81
2022/11/15 09:32:57;;;;;;;10.05;2.75;;;;;;;;;;6246590;23;20356;-81
2022/11/15 09:35:41;;;;;;;12.50;2.30;;;;;;;;;;6266253;22;20059;-80
2022/11/15 09:38:25;;;;;;;6.85;2.25;;;;;;;;;;6246067;23;20023;-80
2022/11/15 09:41:11;;;;;;;6.18;2.10;;;;;;;;;;6266346;22;20100;-80
2022/11/15 09:44:00;;;;;;;12.95;2.28;;;;;;;;;;6246073;23;20027;-80
2022/11/15 09:46:55;;;;;;;7.10;2.42;;;;;;;;;;6244693;23;20038;-81
2022/11/15 09:49:23;;;;;;;7.28;2.20;;;;;;;;;;6255882;22;20016;-81
2022/11/15 09:52:15;;;;;;;4.75;1.90;;;;;;;;;;6241894;22;19999;-81
2022/11/15 09:54:42;;;;;;;9.50;2.50;;;;;;;;;;6269077;22;20020;-81
2022/11/15 09:57:16;;;;;;;7.15;2.05;;;;;;;;;;6242752;23;20466;-81
2022/11/15 09:59:48;;;;;;;5.45;2.03;;;;;;;;;;6267914;22;20019;-81
2022/11/15 10:02:20;;;;;;;6.00;1.92;;;;;;;;;;6244553;23;20012;-81
2022/11/15 10:04:45;;;;;;;6.38;2.10;;;;;;;;;;6244216;22;20016;-80
2022/11/15 10:07:25;;;;;;;9.60;2.17;;;;;;;;;;6268488;22;20004;-81
2022/11/15 10:09:52;;;;;;;11.48;2.10;;;;;;;;;;6244194;22;20004;-81
2022/11/15 10:12:17;;;;;;;6.93;2.10;;;;;;;;;;6268526;22;20096;-82
2022/11/15 10:14:43;;;;;;;6.35;2.65;;;;;;;;;;6244357;23;20043;-81
2022/11/15 10:17:21;;;;;;;6.45;2.60;;;;;;;;;;6244802;22;20007;-81
2022/11/15 10:19:52;;;;;;;9.90;2.55;;;;;;;;;;6244119;22;20012;-81
2022/11/15 10:22:33;;;;;;;7.18;2.67;;;;;;;;;;6243343;23;20390;-81
2022/11/15 10:25:08;;;;;;;7.95;1.80;;;;;;;;;;6242985;23;20019;-81
2022/11/15 10:27:34;;;;;;;5.78;1.77;;;;;;;;;;6217554;23;20054;-81
2022/11/15 10:29:59;;;;;;;6.70;1.92;;;;;;;;;;6268199;22;19996;-81
2022/11/15 10:32:25;;;;;;;5.45;1.90;;;;;;;;;;6268440;22;20015;-81
2022/11/15 10:34:53;;;;;;;5.88;1.90;;;;;;;;;;6244241;22;20000;-81
2022/11/15 10:37:29;;;;;;;6.68;2.28;;;;;;;;;;6269039;22;20050;-82
2022/11/15 10:40:14;;;;;;;7.47;2.10;;;;;;;;;;6268239;22;20016;-81
2022/11/15 10:42:39;;;;;;;8.02;2.80;;;;;;;;;;6244150;22;20023;-81
2022/11/15 10:45:22;;;;;;;9.18;2.38;;;;;;;;;;6244561;23;20075;-80
2022/11/15 10:47:47;;;;;;;5.07;1.92;;;;;;;;;;6242650;23;20008;-81
2022/11/15 10:50:29;;;;;;;6.10;2.42;;;;;;;;;;6268677;22;20007;-81
2022/11/15 10:52:55;;;;;;;7.20;2.30;;;;;;;;;;6243837;23;20008;-82
2022/11/15 10:55:28;;;;;;;8.65;2.40;;;;;;;;;;6242779;23;20057;-81
2022/11/15 10:57:54;;;;;;;5.18;1.92;;;;;;;;;;6267735;22;20065;-81
2022/11/15 11:00:19;;;;;;;5.25;2.00;;;;;;;;;;6267928;22;20448;-80
2022/11/15 11:02:47;;;;;;;6.97;2.15;;;;;;;;;;6242035;23;20019;-81
2022/11/15 11:05:28;;;;;;;7.22;1.58;;;;;;;;;;6267905;22;20008;-81
2022/11/15 11:07:58;;;;;;;4.50;1.50;;;;;;;;;;6243522;22;20087;-80
2022/11/15 11:10:24;;;;;;;5.30;1.60;;;;;;;;;;6267782;22;20050;-81
2022/11/15 11:12:49;;;;;;;9.93;3.00;;;;;;;;;;6268027;22;20452;-80
2022/11/15 11:15:15;;;;;;;4.82;1.90;;;;;;;;;;6267237;22;20436;-80
2022/11/15 11:17:49;;;;;;;6.40;1.70;;;;;;;;;;6243485;22;20472;-81
2022/11/15 11:20:27;;;;;;;5.75;1.98;;;;;;;;;;6241963;23;20486;-82
2022/11/15 11:22:53;;;;;;;7.43;2.38;;;;;;;;;;6243996;22;20008;-81
2022/11/15 11:25:27;;;;;;;10.15;3.20;;;;;;;;;;6216823;23;20010;-81
2022/11/15 11:28:13;;;;;;;9.18;2.90;;;;;;;;;;6243400;22;20018;-81
2022/11/15 11:30:38;;;;;;;7.65;2.78;;;;;;;;;;6197483;22;20012;-81
2022/11/15 11:33:07;;;;;;;5.57;2.90;;;;;;;;;;6242257;23;20023;-81
2022/11/15 11:35:51;;;;;;;9.60;2.83;;;;;;;;;;6243253;23;20014;-81
2022/11/15 11:38:36;;;;;;;8.27;3.25;;;;;;;;;;6244065;22;20035;-81
2022/11/15 11:41:04;;;;;;;7.00;3.00;;;;;;;;;;6243540;23;20008;-81
2022/11/15 11:43:32;;;;;;;5.57;2.40;;;;;;;;;;6267292;22;20011;-81
2022/11/15 11:46:02;;;;;;;3.97;1.95;;;;;;;;;;6242080;23;20460;-81
2022/11/15 11:48:37;;;;;;;4.63;2.17;;;;;;;;;;6243185;22;20019;-79
2022/11/15 11:51:08;;;;;;;9.45;3.28;;;;;;;;;;6243624;22;20008;-81
2022/11/15 11:53:41;;;;;;;8.05;2.58;;;;;;;;;;6267304;22;20012;-80
2022/11/15 11:56:16;;;;;;;10.95;3.20;;;;;;;;;;6242046;23;20016;-81
2022/11/15 11:58:43;;;;;;;17.90;3.28;;;;;;;;;;6241337;23;20274;-81
2022/11/15 12:01:16;;;;;;;11.68;2.40;;;;;;;;;;6267463;22;20023;-81
2022/11/15 12:04:01;;;;;;;9.32;2.45;;;;;;;;;;6243127;23;20069;-81
2022/11/15 12:06:32;;;;;;;7.88;2.47;;;;;;;;;;6267039;22;20333;-80
2022/11/15 12:09:03;;;;;;;5.70;2.00;;;;;;;;;;6266875;22;20016;-80
2022/11/15 12:11:48;;;;;;;5.65;1.92;;;;;;;;;;6243018;23;20008;-81
2022/11/15 12:14:21;;;;;;;5.80;1.65;;;;;;;;;;6243171;23;20012;-79
2022/11/15 12:16:46;;;;;;;6.68;2.28;;;;;;;;;;6241469;23;20019;-79
2022/11/15 12:19:12;;;;;;;8.68;2.03;;;;;;;;;;6243076;22;20035;-80
2022/11/15 12:21:45;;;;;;;5.93;1.75;;;;;;;;;;6242889;22;20050;-80
2022/11/15 12:24:17;;;;;;;7.90;2.25;;;;;;;;;;6241482;23;20085;-80
2022/11/15 12:26:52;;;;;;;8.38;2.40;;;;;;;;;;6243035;23;20040;-80
2022/11/15 12:29:38;;;;;;;6.70;2.40;;;;;;;;;;6267015;22;20008;-80
2022/11/15 12:32:04;;;;;;;9.50;2.72;;;;;;;;;;6242769;22;20008;-81
2022/11/15 12:34:29;;;;;;;10.27;2.60;;;;;;;;;;6267105;22;20087;-81
2022/11/15 12:36:55;;;;;;;8.25;2.40;;;;;;;;;;6243070;22;20020;-80
2022/11/15 12:39:20;;;;;;;6.78;2.95;;;;;;;;;;6266876;22;20000;-81
2022/11/15 12:41:55;;;;;;;8.38;2.95;;;;;;;;;;6266895;22;20031;-80
2022/11/15 12:44:30;;;;;;;9.70;3.30;;;;;;;;;;6241426;23;20012;-80
2022/11/15 12:46:55;;;;;;;6.38;2.33;;;;;;;;;;6241695;23;20054;-80
2022/11/15 12:49:24;;;;;;;6.05;2.15;;;;;;;;;;6241226;23;19996;-80
2022/11/15 12:51:50;;;;;;;6.93;2.00;;;;;;;;;;6242873;23;20008;-80
2022/11/15 12:54:22;;;;;;;6.65;2.30;;;;;;;;;;6243101;22;20004;-81
2022/11/15 12:57:03;;;;;;;8.45;2.00;;;;;;;;;;6241204;23;20012;-81
2022/11/15 12:59:47;;;;;;;5.18;1.60;;;;;;;;;;6243374;22;20023;-81
2022/11/15 13:02:21;;;;;;;5.38;1.35;;;;;;;;;;6240970;23;20069;-81
2022/11/15 13:04:46;;;;;;;7.10;2.22;;;;;;;;;;6243126;22;20016;-81
2022/11/15 13:07:32;;;;;;;4.82;1.95;;;;;;;;;;6266828;22;20000;-81
2022/11/15 13:09:57;;;;;;;4.20;1.60;;;;;;;;;;6220809;23;20008;-81
2022/11/15 13:12:26;;;;;;;4.78;1.70;;;;;;;;;;6241034;22;20006;-80
2022/11/15 13:14:52;;;;;;;7.10;1.52;;;;;;;;;;6241713;23;20012;-80
2022/11/15 13:17:18;;;;;;;5.55;1.55;;;;;;;;;;6241083;23;20000;-82
2022/11/15 13:19:43;;;;;;;5.15;1.60;;;;;;;;;;6241082;23;20012;-80
2022/11/15 13:24:53;;;;;;;7.93;1.70;;;;;;;;;;6241053;23;20115;-80
2022/11/15 13:27:19;;;;;;;9.60;2.17;;;;;;;;;;6266702;22;20333;-81
2022/11/15 13:29:44;;;;;;;4.85;1.58;;;;;;;;;;6267396;22;20031;-81
2022/11/15 13:32:13;;;;;;;6.40;1.55;;;;;;;;;;6244892;22;20005;-81
2022/11/15 13:34:39;;;;;;;4.45;1.33;;;;;;;;;;6243075;23;20456;-81
2022/11/15 13:37:09;;;;;;;7.80;1.70;;;;;;;;;;6268863;22;20039;-81
2022/11/15 13:39:37;;;;;;;3.40;1.48;;;;;;;;;;6268662;22;20094;-80
2022/11/15 13:42:02;;;;;;;4.68;1.33;;;;;;;;;;6268260;22;20004;-82
2022/11/15 13:44:29;;;;;;;8.63;1.58;;;;;;;;;;6242904;23;20018;-80
2022/11/15 13:47:21;;;;;;;5.63;1.67;;;;;;;;;;6268927;22;20140;-81
2022/11/15 13:49:46;;;;;;;4.38;1.30;;;;;;;;;;6237136;22;20012;-81
2022/11/15 13:52:14;;;;;;;6.07;1.65;;;;;;;;;;6268679;22;20007;-80
2022/11/15 13:54:44;;;;;;;6.50;1.60;;;;;;;;;;6268382;22;20012;-81
2022/11/15 13:57:14;;;;;;;7.32;1.65;;;;;;;;;;6244303;23;20448;-81
2022/11/15 13:59:49;;;;;;;7.07;1.58;;;;;;;;;;6244071;22;20020;-80
2022/11/15 14:02:19;;;;;;;9.43;1.70;;;;;;;;;;6268582;22;20535;-81
2022/11/15 14:05:12;;;;;;;7.05;1.67;;;;;;;;;;6268355;22;20352;-81
2022/11/15 14:07:38;;;;;;;7.93;1.58;;;;;;;;;;6240115;22;20198;-81
2022/11/15 14:10:17;;;;;;;5.93;1.58;;;;;;;;;;6243150;23;20432;-80
2022/11/15 14:12:49;;;;;;;6.55;1.48;;;;;;;;;;6268400;22;20004;-81
2022/11/15 14:15:26;;;;;;;5.50;1.40;;;;;;;;;;6268461;22;20014;-81
2022/11/15 14:17:51;;;;;;;4.50;1.33;;;;;;;;;;6268509;22;20007;-80
2022/11/15 14:20:27;;;;;;;4.30;1.67;;;;;;;;;;6268263;22;20031;-80
2022/11/15 14:23:13;;;;;;;6.18;1.85;;;;;;;;;;6242942;23;20368;-81
2022/11/15 14:25:38;;;;;;;5.93;1.55;;;;;;;;;;6228167;22;20016;-81
2022/11/15 14:28:08;;;;;;;9.25;1.73;;;;;;;;;;6243991;23;20000;-81
2022/11/15 14:30:33;;;;;;;8.32;1.58;;;;;;;;;;6268364;22;20012;-81
2022/11/15 14:32:59;;;;;;;6.50;1.60;;;;;;;;;;6268588;22;20083;-80
2022/11/15 14:35:24;;;;;;;7.88;1.50;;;;;;;;;;6244439;23;20008;-82
2022/11/15 14:37:50;;;;;;;4.82;1.60;;;;;;;;;;6268278;22;20095;-81
2022/11/15 14:40:17;;;;;;;5.78;1.30;;;;;;;;;;6267957;22;20113;-81
2022/11/15 14:42:43;;;;;;;7.15;1.70;;;;;;;;;;6244850;22;20003;-80
2022/11/15 14:45:13;;;;;;;7.72;1.45;;;;;;;;;;6242404;23;20085;-80
2022/11/15 14:47:38;;;;;;;6.38;1.75;;;;;;;;;;6268155;22;20498;-83
2022/11/15 14:50:04;;;;;;;6.32;1.70;;;;;;;;;;6244557;23;20126;-80
2022/11/15 14:52:33;;;;;;;7.30;1.73;;;;;;;;;;6241785;23;19996;-82
2022/11/15 14:54:59;;;;;;;5.20;1.40;;;;;;;;;;6267757;22;20012;-80
2022/11/15 14:57:24;;;;;;;4.53;1.40;;;;;;;;;;6244201;22;20424;-82
2022/11/15 14:59:50;;;;;;;5.43;1.80;;;;;;;;;;6243768;22;20024;-81
2022/11/15 15:02:15;;;;;;;10.80;2.05;;;;;;;;;;6243769;23;20040;-80
2022/11/15 15:04:41;;;;;;;4.80;1.73;;;;;;;;;;6243926;23;20016;-81
2022/11/15 15:07:06;;;;;;;7.53;1.80;;;;;;;;;;6267919;22;20027;-81
2022/11/15 15:09:32;;;;;;;8.07;1.88;;;;;;;;;;6267727;22;20012;-81
2022/11/15 15:11:57;;;;;;;6.90;1.88;;;;;;;;;;6243668;22;20000;-81
2022/11/15 15:14:23;;;;;;;4.25;1.50;;;;;;;;;;6268021;22;20019;-81
2022/11/15 15:16:48;;;;;;;3.97;1.63;;;;;;;;;;6267719;22;20000;-81
2022/11/15 15:19:13;;;;;;;8.52;1.90;;;;;;;;;;6242791;23;20012;-81
2022/11/15 15:21:39;;;;;;;4.45;1.33;;;;;;;;;;6267855;22;20000;-80
2022/11/15 15:24:05;;;;;;;5.55;1.75;;;;;;;;;;6242430;23;20012;-82
2022/11/15 15:26:33;;;;;;;10.45;2.17;;;;;;;;;;6242280;23;20313;-80
2022/11/15 15:28:59;;;;;;;6.18;1.88;;;;;;;;;;6243979;22;20022;-81
2022/11/15 15:31:24;;;;;;;7.65;2.00;;;;;;;;;;6243505;22;20011;-80
2022/11/15 15:33:50;;;;;;;6.60;2.20;;;;;;;;;;6244110;23;20035;-80
2022/11/15 15:36:17;;;;;;;6.80;2.17;;;;;;;;;;6243118;23;20011;-80
2022/11/15 15:38:42;;;;;;;8.18;2.13;;;;;;;;;;6242443;23;20012;-80
2022/11/15 15:41:11;;;;;;;4.82;2.05;;;;;;;;;;6241912;23;20317;-80
2022/11/15 15:43:37;;;;;;;9.40;2.33;;;;;;;;;;6244017;22;20008;-81
2022/11/15 15:46:02;;;;;;;7.45;2.63;;;;;;;;;;6243002;23;20004;-81
2022/11/15 15:48:28;;;;;;;8.10;2.60;;;;;;;;;;6243284;22;20039;-80
2022/11/15 15:50:53;;;;;;;7.47;2.90;;;;;;;;;;6241153;23;20031;-80
2022/11/15 15:53:19;;;;;;;14.18;3.83;;;;;;;;;;6266936;22;20038;-82
2022/11/15 15:55:44;;;;;;;13.30;2.45;;;;;;;;;;6241537;23;20371;-81
2022/11/15 15:58:10;;;;;;;11.40;2.75;;;;;;;;;;6243129;22;20027;-80
2022/11/15 16:00:35;;;;;;;5.35;2.33;;;;;;;;;;6267347;22;20023;-80
2022/11/15 16:03:01;;;;;;;8.52;2.80;;;;;;;;;;6243809;22;20012;-81